Aviation Digital Data Service (ADDS)

Output produced by METARs form (1408 UTC 21 August 2019)
found at http://www.aviationweather.gov/metar/data/
 
Forecast for: LPST (SINTRA/GRANJA (A, PT)
Text: TAF LPST 211402Z 2115/2124 31008KT CAVOK
Forecast period: 1500 UTC 21 August 2019 to 0000 UTC 22 August 2019
Forecast type: FROM: standard forecast or significant change
Winds: from the NW (310 degrees) at 9 MPH (8 knots; 4.1 m/s)
Visibility: 6 or more miles 10+ km)
Ceiling: unknown
Clouds: missing
Weather: NSW  (no significant weather)
Text: TEMPO 2115/2121 32012G22KT
Forecast period: 1500 to 2100 UTC 21 August 2019
Forecast type: TEMPORARY: The following changes expected for less than half the time period
Winds: from the NW (320 degrees) at 14 MPH (12 knots; 6.2 m/s)
gusting to 25 MPH (22 knots; 11.3 m/s)
Visibility: missing
Ceiling: unknown
Clouds: missing
Weather: no significant weather forecast for this period